Time;durP1;ratioP1;P1;durP2;ratioP2;P2;SDS_P1;SDS_P2;PMS_P1;PMS_P2;Temp;Humidity;BMP_temperature;BMP_pressure;BME280_temperature;BME280_humidity;BME280_pressure;Samples;Min_cycle;Max_cycle;Signal;HPM_P1;HPM_P2
2024/01/08 00:01:27;;;;;;;6.78;2.60;;;;;;;;;;4150583;28;20062;-81
2024/01/08 00:03:43;;;;;;;5.38;2.83;;;;;;;;;;4134253;28;20057;-81
2024/01/08 00:05:56;;;;;;;5.75;2.10;;;;;;;;;;4151109;28;20034;-81
2024/01/08 00:08:10;;;;;;;8.25;2.60;;;;;;;;;;4149366;28;20042;-81
2024/01/08 00:10:14;;;;;;;4.93;2.33;;;;;;;;;;4149616;28;20046;-81
2024/01/08 00:12:31;;;;;;;7.22;2.20;;;;;;;;;;4150198;28;20030;-81
2024/01/08 00:14:43;;;;;;;4.70;2.72;;;;;;;;;;4151504;28;20037;-81
2024/01/08 00:16:55;;;;;;;10.60;3.42;;;;;;;;;;4150555;28;20140;-81
2024/01/08 00:19:03;;;;;;;5.07;2.50;;;;;;;;;;4151063;28;20076;-81
2024/01/08 00:21:05;;;;;;;7.32;2.60;;;;;;;;;;4149015;28;20047;-81
2024/01/08 00:23:09;;;;;;;8.38;2.72;;;;;;;;;;4150312;28;20073;-82
2024/01/08 00:25:40;;;;;;;3.88;2.10;;;;;;;;;;4149307;28;20053;-81
2024/01/08 00:30:53;;;;;;;7.38;2.50;;;;;;;;;;4151968;28;20061;-82
2024/01/08 00:32:55;;;;;;;4.90;2.15;;;0.50;99.90;;;;;;4150996;28;20129;-81
2024/01/08 00:34:56;;;;;;;8.25;2.70;;;-1.40;99.90;;;;;;4135183;28;20039;-81
2024/01/08 00:37:16;;;;;;;7.75;2.83;;;-1.20;99.90;;;;;;4153275;28;20046;-82
2024/01/08 00:39:27;;;;;;;5.53;2.67;;;-2.20;99.90;;;;;;4153469;28;20045;-82
2024/01/08 00:41:28;;;;;;;7.00;2.40;;;-0.60;99.90;;;;;;4152783;28;20462;-82
2024/01/08 00:43:37;;;;;;;4.32;2.35;;;-1.20;99.90;;;;;;4152439;28;20050;-81
2024/01/08 00:45:56;;;;;;;7.55;3.63;;;-0.90;99.90;;;;;;4151035;28;20106;-82
2024/01/08 00:47:57;;;;;;;6.32;2.53;;;-0.90;99.90;;;;;;4151731;28;20073;-82
2024/01/08 00:50:20;;;;;;;4.28;2.35;;;-1.10;99.90;;;;;;4151060;28;20057;-82
2024/01/08 00:52:22;;;;;;;6.70;2.90;;;-0.60;99.90;;;;;;4151130;28;20077;-82
2024/01/08 00:54:28;;;;;;;7.38;2.88;;;-0.50;99.90;;;;;;4151437;28;20467;-82
2024/01/08 00:56:29;;;;;;;5.35;2.60;;;-1.50;99.90;;;;;;4150541;28;20057;-82
2024/01/08 00:58:54;;;;;;;7.15;2.83;;;-1.50;99.90;;;;;;4151275;28;20076;-82
2024/01/08 01:00:57;;;;;;;6.57;2.67;;;-1.60;99.90;;;;;;4151506;28;20046;-82
2024/01/08 01:03:00;;;;;;;4.25;2.28;;;-1.60;99.90;;;;;;4150697;28;20046;-82
2024/01/08 01:05:01;;;;;;;5.22;2.33;;;-2.20;99.90;;;;;;4140349;28;20038;-82
2024/01/08 01:07:05;;;;;;;6.45;2.70;;;;;;;;;;4166029;28;20038;-83
2024/01/08 01:09:08;;;;;;;5.88;2.50;;;-1.60;99.90;;;;;;4148562;28;20055;-83
2024/01/08 01:11:27;;;;;;;5.25;2.58;;;-1.60;99.90;;;;;;4117577;29;20082;-83
2024/01/08 01:13:33;;;;;;;6.43;2.75;;;-1.30;99.90;;;;;;4134218;28;20223;-83
2024/01/08 01:15:40;;;;;;;4.97;2.60;;;;;;;;;;4136440;28;20050;-82
2024/01/08 01:17:51;;;;;;;5.68;3.15;;;;;;;;;;4150394;28;20054;-83
2024/01/08 01:19:55;;;;;;;5.28;2.75;;;;;;;;;;4150168;28;20073;-82
2024/01/08 01:21:56;;;;;;;7.22;2.80;;;;;;;;;;4133826;28;20058;-83
2024/01/08 01:24:08;;;;;;;5.07;2.60;;;;;;;;;;4133640;28;20066;-83
2024/01/08 01:26:29;;;;;;;5.97;2.83;;;;;;;;;;4134518;28;20042;-83
2024/01/08 01:28:32;;;;;;;6.63;3.40;;;;;;;;;;4134228;28;20049;-83
2024/01/08 01:30:35;;;;;;;7.43;3.03;;;;;;;;;;4133764;28;20133;-83
2024/01/08 01:32:37;;;;;;;8.82;3.35;;;;;;;;;;4131755;28;20061;-83
2024/01/08 01:34:39;;;;;;;9.30;3.05;;;;;;;;;;4133706;28;20186;-83
2024/01/08 01:36:40;;;;;;;5.00;2.47;;;;;;;;;;4133704;28;20049;-83
2024/01/08 01:38:49;;;;;;;6.85;2.75;;;;;;;;;;4130601;28;20102;-83
2024/01/08 01:40:51;;;;;;;;;;;;;;;;;;4129919;28;20042;-83
2024/01/08 01:43:01;;;;;;;7.03;3.40;;;;;;;;;;4132958;28;19918;-83
2024/01/08 01:45:04;;;;;;;6.90;3.28;;;;;;;;;;4133083;28;20073;-83
2024/01/08 01:47:07;;;;;;;5.38;2.88;;;;;;;;;;4133205;28;20050;-83
2024/01/08 01:49:11;;;;;;;5.32;2.97;;;;;;;;;;4133171;28;20047;-83
2024/01/08 01:51:13;;;;;;;7.60;2.88;;;;;;;;;;4132004;28;20054;-83
2024/01/08 01:53:15;;;;;;;10.00;3.20;;;;;;;;;;4133015;28;20042;-83
2024/01/08 01:55:20;;;;;;;8.32;4.15;;;;;;;;;;4132829;28;20038;-83
2024/01/08 01:57:23;;;;;;;5.88;2.80;;;;;;;;;;4133369;28;20055;-84
2024/01/08 01:59:30;;;;;;;8.38;3.58;;;;;;;;;;4133101;28;20043;-83
2024/01/08 02:01:40;;;;;;;7.35;3.15;;;;;;;;;;4147839;28;20102;-84
2024/01/08 02:03:42;;;;;;;7.78;3.40;;;;;;;;;;4132032;28;20075;-84
2024/01/08 02:05:54;;;;;;;6.20;2.90;;;;;;;;;;4131211;28;20085;-84
2024/01/08 02:07:57;;;;;;;7.13;3.55;;;;;;;;;;4131549;28;20047;-83
2024/01/08 02:10:10;;;;;;;8.65;3.40;;;;;;;;;;4131004;28;20043;-83
2024/01/08 02:12:26;;;;;;;6.97;3.13;;;;;;;;;;4132396;28;20078;-83
2024/01/08 02:14:27;;;;;;;6.60;2.90;;;;;;;;;;4132319;28;20054;-83
2024/01/08 02:16:30;;;;;;;7.53;3.35;;;;;;;;;;4131951;28;20074;-83
2024/01/08 02:18:32;;;;;;;8.18;3.50;;;;;;;;;;4133690;28;20046;-83
2024/01/08 02:20:40;;;;;;;8.63;3.85;;;;;;;;;;4133000;28;20043;-84
2024/01/08 02:22:45;;;;;;;6.50;3.20;;;;;;;;;;4131903;28;20062;-81
2024/01/08 02:24:47;;;;;;;8.40;3.47;;;;;;;;;;4132396;28;20042;-84
2024/01/08 02:27:03;;;;;;;10.65;3.83;;;;;;;;;;4132326;28;20047;-81
2024/01/08 02:29:06;;;;;;;7.78;4.05;;;;;;;;;;4133583;28;20057;-82
2024/01/08 02:31:09;;;;;;;7.68;3.72;;;;;;;;;;4131925;28;20058;-83
2024/01/08 02:33:16;;;;;;;7.05;3.03;;;;;;;;;;4131941;28;20043;-82
2024/01/08 02:35:19;;;;;;;7.22;3.22;;;;;;;;;;4120265;28;20046;-82
2024/01/08 02:37:21;;;;;;;8.57;4.70;;;;;;;;;;4126471;28;20053;-83
2024/01/08 02:39:22;;;;;;;8.88;3.75;;;;;;;;;;4131090;28;20073;-83
2024/01/08 02:41:32;;;;;;;8.13;3.13;;;;;;;;;;4130833;28;20043;-83
2024/01/08 02:43:34;;;;;;;8.45;3.72;;;;;;;;;;4131691;28;20050;-82
2024/01/08 02:45:36;;;;;;;9.90;4.07;;;;;;;;;;4131336;28;20077;-83
2024/01/08 02:47:50;;;;;;;9.00;4.05;;;;;;;;;;4132250;28;20050;-83
2024/01/08 02:49:54;;;;;;;7.68;3.60;;;;;;;;;;4132125;28;20070;-83
2024/01/08 02:51:57;;;;;;;7.25;3.70;;;;;;;;;;4122001;28;20051;-83
2024/01/08 02:53:59;;;;;;;7.80;3.67;;;;;;;;;;4115098;28;20078;-83
2024/01/08 02:56:02;;;;;;;7.38;3.30;;;;;;;;;;4115910;29;20051;-83
2024/01/08 02:58:04;;;;;;;7.53;2.75;;;;;;;;;;4115865;28;20102;-82
2024/01/08 03:00:20;;;;;;;8.02;3.55;;;;;;;;;;4115966;28;20054;-83
2024/01/08 03:02:41;;;;;;;6.88;3.33;;;;;;;;;;4114887;29;20074;-82
2024/01/08 03:04:42;;;;;;;11.77;3.80;;;;;;;;;;4131177;28;20070;-83
2024/01/08 03:06:45;;;;;;;6.95;3.08;;;;;;;;;;4131847;28;20104;-83
2024/01/08 03:08:46;;;;;;;7.35;3.05;;;;;;;;;;4131485;28;20094;-83
2024/01/08 03:10:48;;;;;;;7.22;3.13;;;;;;;;;;4130936;28;20103;-84
2024/01/08 03:12:58;;;;;;;6.28;2.95;;;;;;;;;;4131187;28;20050;-83
2024/01/08 03:15:04;;;;;;;7.15;3.05;;;;;;;;;;4130915;28;20110;-83
2024/01/08 03:17:06;;;;;;;6.53;3.15;;;;;;;;;;4131139;28;20069;-83
2024/01/08 03:19:14;;;;;;;5.65;3.10;;;;;;;;;;4129629;28;20316;-83
2024/01/08 03:21:16;;;;;;;4.95;3.33;;;;;;;;;;4130782;28;20101;-83
2024/01/08 03:23:20;;;;;;;5.53;3.17;;;;;;;;;;4146636;28;20046;-83
2024/01/08 03:25:23;;;;;;;6.00;3.20;;;;;;;;;;4145761;28;20042;-83
2024/01/08 03:27:25;;;;;;;8.93;3.78;;;;;;;;;;4146401;28;20407;-83
2024/01/08 03:29:28;;;;;;;6.18;2.65;;;;;;;;;;4145782;28;20054;-83
2024/01/08 03:31:40;;;;;;;5.32;2.45;;;;;;;;;;4146948;28;20097;-83
2024/01/08 03:33:41;;;;;;;6.43;2.97;;;;;;;;;;4146603;28;20026;-83
2024/01/08 03:35:50;;;;;;;11.43;3.80;;;;;;;;;;4147500;28;20455;-83
2024/01/08 03:37:55;;;;;;;8.57;3.70;;;;;;;;;;4146502;28;20050;-82
2024/01/08 03:40:02;;;;;;;6.88;2.90;;;;;;;;;;4145966;28;20273;-83
2024/01/08 03:42:09;;;;;;;6.40;3.03;;;;;;;;;;4129860;28;20047;-83
2024/01/08 03:44:18;;;;;;;6.88;3.20;;;;;;;;;;4146496;28;20049;-83
2024/01/08 03:46:25;;;;;;;4.90;2.60;;;;;;;;;;4146179;28;20049;-83
2024/01/08 03:48:26;;;;;;;5.00;2.45;;;;;;;;;;4146187;28;20048;-83
2024/01/08 03:50:29;;;;;;;6.18;2.75;;;;;;;;;;4145836;28;20113;-83
2024/01/08 03:52:41;;;;;;;5.70;3.20;;;;;;;;;;4147745;28;20105;-83
2024/01/08 03:54:44;;;;;;;6.55;3.10;;;;;;;;;;4136015;28;20043;-83
2024/01/08 03:56:47;;;;;;;6.60;3.47;;;;;;;;;;4146065;28;20046;-83
2024/01/08 03:58:54;;;;;;;9.70;3.13;;;;;;;;;;4147247;28;20049;-83
2024/01/08 04:01:01;;;;;;;9.75;2.90;;;;;;;;;;4146731;28;20403;-83
2024/01/08 04:03:03;;;;;;;8.93;3.25;;;;;;;;;;4146740;28;20038;-83
2024/01/08 04:05:09;;;;;;;5.90;3.10;;;;;;;;;;4147877;28;20046;-84
2024/01/08 04:07:11;;;;;;;6.65;2.97;;;;;;;;;;4147176;28;20054;-83
2024/01/08 04:09:17;;;;;;;7.45;2.85;;;;;;;;;;4146715;28;20046;-83
2024/01/08 04:11:18;;;;;;;4.95;2.40;;;;;;;;;;4145876;28;20046;-83
2024/01/08 04:13:27;;;;;;;5.65;3.40;;;;;;;;;;4147353;28;20039;-83
2024/01/08 04:15:28;;;;;;;9.57;3.00;;;;;;;;;;4146327;28;20042;-83
2024/01/08 04:17:38;;;;;;;7.25;2.60;;;;;;;;;;4146467;28;20042;-83
2024/01/08 04:19:40;;;;;;;7.93;2.67;;;;;;;;;;4146590;28;20046;-82
2024/01/08 04:21:41;;;;;;;7.05;2.42;;;;;;;;;;4145979;28;20495;-82
2024/01/08 04:23:47;;;;;;;7.32;2.72;;;;;;;;;;4146709;28;20054;-83
2024/01/08 04:25:52;;;;;;;6.43;2.40;;;;;;;;;;4147588;28;20038;-83
2024/01/08 04:28:02;;;;;;;6.55;2.72;;;;;;;;;;4147181;28;20042;-83
2024/01/08 04:30:32;;;;;;;5.85;2.67;;;;;;;;;;4140371;28;20047;-83
2024/01/08 04:32:37;;;;;;;5.32;2.42;;;;;;;;;;4131540;28;20047;-83
2024/01/08 04:34:39;;;;;;;8.40;2.90;;;-0.40;99.90;;;;;;4130878;28;20039;-83
2024/01/08 04:36:45;;;;;;;4.13;2.58;;;;;;;;;;4137121;28;20530;-83
2024/01/08 04:38:54;;;;;;;6.15;2.63;;;;;;;;;;4147232;28;20051;-83
2024/01/08 04:40:55;;;;;;;5.50;2.25;;;;;;;;;;4146406;28;20026;-83
2024/01/08 04:43:05;;;;;;;4.18;2.20;;;;;;;;;;4146280;28;20050;-83
2024/01/08 04:45:07;;;;;;;6.70;2.78;;;;;;;;;;4130216;28;20075;-83
2024/01/08 04:47:08;;;;;;;4.72;2.40;;;;;;;;;;4146532;28;20093;-83
2024/01/08 04:49:10;;;;;;;6.35;2.47;;;;;;;;;;4129287;28;20131;-83
2024/01/08 04:51:36;;;;;;;5.80;3.13;;;;;;;;;;4145865;28;20050;-83
2024/01/08 04:53:42;;;;;;;5.18;2.03;;;-0.90;99.90;;;;;;4146998;28;20073;-83
2024/01/08 04:56:07;;;;;;;4.45;2.15;;;;;;;;;;4146576;28;20073;-83
2024/01/08 04:58:14;;;;;;;5.97;2.80;;;;;;;;;;4147556;28;20117;-82
2024/01/08 05:00:17;;;;;;;5.10;2.33;;;;;;;;;;4147467;28;20042;-83
2024/01/08 05:02:27;;;;;;;5.22;2.30;;;;;;;;;;4151290;28;20049;-83
2024/01/08 05:04:35;;;;;;;5.97;2.53;;;;;;;;;;4150818;28;20054;-82
2024/01/08 05:06:36;;;;;;;4.38;2.13;;;;;;;;;;4151857;28;20027;-84
2024/01/08 05:08:38;;;;;;;6.50;3.08;;;;;;;;;;4150883;28;20051;-83
2024/01/08 05:10:41;;;;;;;8.00;2.72;;;;;;;;;;4151079;28;20047;-83
2024/01/08 05:12:43;;;;;;;3.67;1.88;;;;;;;;;;4150115;28;20107;-83
2024/01/08 05:14:46;;;;;;;4.22;2.45;;;;;;;;;;4148507;28;20098;-83
2024/01/08 05:16:49;;;;;;;4.18;1.85;;;;;;;;;;4149248;28;20048;-83
2024/01/08 05:19:00;;;;;;;6.47;2.10;;;;;;;;;;4149554;28;20052;-83
2024/01/08 05:21:03;;;;;;;3.75;2.00;;;;;;;;;;4150052;28;20038;-83
2024/01/08 05:23:06;;;;;;;6.78;2.50;;;;;;;;;;4148839;28;20105;-83
2024/01/08 05:25:17;;;;;;;4.18;2.08;;;;;;;;;;4149628;28;20054;-83
2024/01/08 05:27:31;;;;;;;3.75;2.33;;;;;;;;;;4150226;28;20069;-84
2024/01/08 05:29:40;;;;;;;8.05;2.65;;;;;;;;;;4151020;28;20038;-83
2024/01/08 05:31:43;;;;;;;6.82;2.90;;;;;;;;;;4150404;28;20043;-83
2024/01/08 05:34:01;;;;;;;4.72;1.90;;;;;;;;;;4149358;28;20101;-84
2024/01/08 05:36:02;;;;;;;7.63;3.42;;;;;;;;;;4133563;28;20133;-84
2024/01/08 05:38:05;;;;;;;8.48;2.70;;;;;;;;;;4150164;28;20042;-83
2024/01/08 05:40:22;;;;;;;4.97;2.70;;;;;;;;;;4150256;28;20038;-83
2024/01/08 05:42:29;;;;;;;4.50;2.22;;;;;;;;;;4150602;28;20057;-84
2024/01/08 05:44:30;;;;;;;5.63;2.42;;;;;;;;;;4149492;28;20046;-83
2024/01/08 05:46:44;;;;;;;5.45;1.92;;;;;;;;;;4150153;28;20046;-83
2024/01/08 05:48:49;;;;;;;7.07;3.53;;;;;;;;;;4150331;28;20066;-83
2024/01/08 05:50:59;;;;;;;5.95;2.80;;;;;;;;;;4149394;28;20074;-83
2024/01/08 05:53:01;;;;;;;4.05;2.22;;;;;;;;;;4149548;28;20046;-83
2024/01/08 05:55:03;;;;;;;5.90;2.30;;;;;;;;;;4149755;28;20150;-83
2024/01/08 05:57:15;;;;;;;5.93;2.75;;;;;;;;;;4150066;28;20051;-83
2024/01/08 05:59:18;;;;;;;11.80;2.85;;;;;;;;;;4149865;28;20045;-83
2024/01/08 06:01:21;;;;;;;6.80;2.58;;;;;;;;;;4146055;28;20038;-83
2024/01/08 06:03:32;;;;;;;5.57;2.78;;;;;;;;;;4150096;28;20109;-83
2024/01/08 06:05:34;;;;;;;8.27;2.38;;;;;;;;;;4149774;28;20050;-83
2024/01/08 06:07:44;;;;;;;3.83;1.98;;;;;;;;;;4132753;28;20054;-83
2024/01/08 06:09:53;;;;;;;4.13;1.83;;;;;;;;;;4134007;28;20046;-83
2024/01/08 06:12:01;;;;;;;5.72;2.40;;;;;;;;;;4134336;28;20047;-83
2024/01/08 06:14:06;;;;;;;10.33;2.63;;;;;;;;;;4133423;28;20049;-83
2024/01/08 06:16:07;;;;;;;4.13;1.98;;;;;;;;;;4133111;28;20763;-83
2024/01/08 06:18:27;;;;;;;4.07;2.08;;;;;;;;;;4133408;28;20051;-83
2024/01/08 06:20:30;;;;;;;5.80;2.10;;;;;;;;;;4119270;28;20061;-83
2024/01/08 06:25:19;;;;;;;8.63;2.92;;;;;;;;;;4150094;28;20396;-83
2024/01/08 06:27:24;;;;;;;4.60;2.30;;;;;;;;;;4139454;28;20046;-83
2024/01/08 06:29:43;;;;;;;7.32;2.70;;;;;;;;;;4133816;28;20046;-83
2024/01/08 06:31:55;;;;;;;6.88;2.28;;;;;;;;;;4142034;28;20074;-83
2024/01/08 06:33:57;;;;;;;5.80;2.30;;;;;;;;;;4149096;28;20046;-83
2024/01/08 06:36:01;;;;;;;5.10;1.90;;;;;;;;;;4131485;28;20439;-83
2024/01/08 06:38:02;;;;;;;6.03;1.88;;;;;;;;;;4148648;28;20078;-83
2024/01/08 06:40:13;;;;;;;7.20;2.15;;;;;;;;;;4148679;28;20038;-84
2024/01/08 06:42:16;;;;;;;6.13;1.95;;;;;;;;;;4147774;28;20487;-83
2024/01/08 06:44:18;;;;;;;5.10;2.28;;;;;;;;;;4130508;28;20047;-83
2024/01/08 06:46:21;;;;;;;8.52;2.35;;;;;;;;;;4141781;28;20042;-83
2024/01/08 06:48:26;;;;;;;5.65;2.25;;;;;;;;;;4147511;28;20042;-83
2024/01/08 06:50:28;;;;;;;8.00;2.30;;;;;;;;;;4148055;28;20073;-83
2024/01/08 06:52:53;;;;;;;4.88;2.47;;;;;;;;;;4147967;28;20025;-83
2024/01/08 06:54:55;;;;;;;10.55;2.67;;;;;;;;;;4147411;28;20535;-83
2024/01/08 06:57:03;;;;;;;7.13;2.22;;;;;;;;;;4147780;28;20503;-83
2024/01/08 06:59:05;;;;;;;6.90;2.30;;;;;;;;;;4131395;28;20039;-83
2024/01/08 07:01:07;;;;;;;5.43;2.30;;;;;;;;;;4148096;28;20074;-83
2024/01/08 07:03:20;;;;;;;8.07;2.33;;;;;;;;;;4147899;28;20053;-82
2024/01/08 07:05:29;;;;;;;6.85;2.50;;;;;;;;;;4149803;28;20034;-83
2024/01/08 07:07:40;;;;;;;6.85;2.42;;;;;;;;;;4153970;28;20042;-83
2024/01/08 07:09:58;;;;;;;6.82;1.60;;;;;;;;;;4136866;28;20050;-84
2024/01/08 07:11:59;;;;;;;6.55;2.25;;;;;;;;;;4153245;28;20026;-83
2024/01/08 07:14:14;;;;;;;4.38;2.20;;;;;;;;;;4136316;28;20066;-83
2024/01/08 07:16:28;;;;;;;5.28;2.35;;;;;;;;;;4153307;28;20033;-83
2024/01/08 07:18:35;;;;;;;7.95;1.83;;;;;;;;;;4152335;28;20102;-83
2024/01/08 07:20:48;;;;;;;5.35;2.40;;;;;;;;;;4115324;28;20047;-83
2024/01/08 07:22:49;;;;;;;5.38;2.40;;;;;;;;;;4132214;28;20057;-84
2024/01/08 07:24:54;;;;;;;6.38;2.05;;;;;;;;;;4134757;28;20423;-83
2024/01/08 07:26:57;;;;;;;7.35;2.55;;;;;;;;;;4130537;28;20058;-83
2024/01/08 07:28:58;;;;;;;8.70;2.10;;;;;;;;;;4147809;28;20050;-84
2024/01/08 07:31:05;;;;;;;6.18;2.15;;;;;;;;;;4147407;28;20057;-83
2024/01/08 07:33:15;;;;;;;5.78;2.00;;;;;;;;;;4147572;28;20535;-83
2024/01/08 07:35:18;;;;;;;5.47;2.63;;;;;;;;;;4146832;28;20054;-83
2024/01/08 07:37:19;;;;;;;9.00;2.38;;;;;;;;;;4147093;28;20050;-83
2024/01/08 07:39:30;;;;;;;5.57;2.45;;;;;;;;;;4146265;28;20551;-83
2024/01/08 07:41:32;;;;;;;4.85;1.77;;;;;;;;;;4149218;28;20049;-84
2024/01/08 07:43:37;;;;;;;4.95;2.60;;;;;;;;;;4137045;28;20047;-84
2024/01/08 07:45:41;;;;;;;5.57;2.22;;;;;;;;;;4152378;28;20070;-83
2024/01/08 07:47:43;;;;;;;7.03;2.55;;;;;;;;;;4152932;28;20050;-82
2024/01/08 07:49:48;;;;;;;6.78;2.13;;;;;;;;;;4153603;28;20030;-82
2024/01/08 07:51:55;;;;;;;8.10;2.53;;;;;;;;;;4152373;28;20077;-83
2024/01/08 07:56:43;;;;;;;6.63;1.98;;;;;;;;;;4135394;28;20034;-83
2024/01/08 07:58:47;;;;;;;6.38;2.20;;;;;;;;;;4134443;28;20050;-83
2024/01/08 08:00:58;;;;;;;5.05;2.10;;;;;;;;;;4134181;28;20055;-83
2024/01/08 08:03:09;;;;;;;4.95;2.20;;;;;;;;;;4148111;28;20070;-83
2024/01/08 08:05:11;;;;;;;4.90;2.20;;;;;;;;;;4147369;28;20019;-83
2024/01/08 08:07:28;;;;;;;3.83;1.95;;;;;;;;;;4146875;28;20046;-83
2024/01/08 08:09:30;;;;;;;8.60;3.40;;;;;;;;;;4146804;28;20042;-83
2024/01/08 08:11:33;;;;;;;5.03;2.40;;;;;;;;;;4146310;28;20090;-83
2024/01/08 08:13:35;;;;;;;4.95;2.42;;;;;;;;;;4129934;28;20047;-84
2024/01/08 08:15:44;;;;;;;8.70;2.38;;;;;;;;;;4146409;28;20050;-84
2024/01/08 08:17:47;;;;;;;4.93;2.05;;;;;;;;;;4137715;28;20110;-83
2024/01/08 08:19:50;;;;;;;8.57;3.00;;;;;;;;;;4146598;28;20045;-81
2024/01/08 08:21:51;;;;;;;6.53;2.40;;;;;;;;;;4143676;28;20487;-83
2024/01/08 08:23:55;;;;;;;7.30;2.50;;;;;;;;;;4144668;28;20066;-84
2024/01/08 08:25:58;;;;;;;12.40;1.90;;;;;;;;;;4129355;28;20062;-83
2024/01/08 08:28:08;;;;;;;4.50;2.17;;;;;;;;;;4129632;28;20043;-82
2024/01/08 08:30:12;;;;;;;5.95;1.90;;;;;;;;;;4121098;28;20039;-82
2024/01/08 08:32:13;;;;;;;4.13;1.75;;;;;;;;;;4146022;28;20042;-83
2024/01/08 08:34:15;;;;;;;3.22;1.58;;;;;;;;;;4129304;28;20051;-83
2024/01/08 08:36:18;;;;;;;5.50;2.05;;;;;;;;;;4147099;28;20043;-83
2024/01/08 08:38:21;;;;;;;7.32;1.63;;;;;;;;;;4146948;28;20046;-83
2024/01/08 08:40:40;;;;;;;4.53;1.65;;;;;;;;;;4129703;28;20057;-84
2024/01/08 08:42:42;;;;;;;3.53;1.63;;;;;;;;;;4143600;28;20073;-83
2024/01/08 08:44:43;;;;;;;5.15;2.08;;;;;;;;;;4140551;28;20043;-83
2024/01/08 08:46:59;;;;;;;5.47;1.90;;;;;;;;;;4134908;28;20081;-83
2024/01/08 08:49:06;;;;;;;3.90;1.67;;;;;;;;;;4138450;28;20046;-83
2024/01/08 08:51:09;;;;;;;4.55;1.80;;;;;;;;;;4140344;28;20046;-83
2024/01/08 08:53:11;;;;;;;3.55;1.88;;;;;;;;;;4133066;28;20038;-83
2024/01/08 08:55:15;;;;;;;5.78;1.60;;;;;;;;;;4132241;28;20078;-83
2024/01/08 08:57:19;;;;;;;5.93;2.15;;;;;;;;;;4131567;28;20500;-83
2024/01/08 08:59:21;;;;;;;3.72;1.20;;;;;;;;;;4141572;28;20459;-83
2024/01/08 09:01:23;;;;;;;3.42;2.08;;;;;;;;;;4133613;28;20054;-83
2024/01/08 09:03:25;;;;;;;3.80;1.40;;;;;;;;;;4131690;28;20043;-82
2024/01/08 09:05:29;;;;;;;6.20;1.88;;;;;;;;;;4133188;28;20191;-82
2024/01/08 09:07:37;;;;;;;6.13;1.65;;;;;;;;;;4142243;28;20066;-83
2024/01/08 09:09:39;;;;;;;7.43;1.73;;;;;;;;;;4138592;28;20090;-83
2024/01/08 09:11:42;;;;;;;6.55;2.38;;;;;;;;;;4130368;28;20058;-83
2024/01/08 09:13:44;;;;;;;5.05;1.60;;;;;;;;;;4145213;28;20107;-83
2024/01/08 09:15:47;;;;;;;3.50;1.60;;;;;;;;;;4147062;28;20106;-83
2024/01/08 09:17:51;;;;;;;4.00;1.50;;;;;;;;;;4140573;28;20042;-82
2024/01/08 09:19:53;;;;;;;4.60;1.60;;;;;;;;;;4128801;28;20125;-82
2024/01/08 09:21:54;;;;;;;3.25;1.38;;;;;;;;;;4129862;28;20562;-82
2024/01/08 09:23:56;;;;;;;4.80;1.75;;;;;;;;;;4145928;28;20184;-83
2024/01/08 09:25:57;;;;;;;4.93;1.38;;;;;;;;;;4142454;28;20053;-82
2024/01/08 09:27:59;;;;;;;3.42;1.40;;;;;;;;;;4129426;28;20047;-82
2024/01/08 09:30:04;;;;;;;3.10;1.70;;;;;;;;;;4112458;29;20047;-82
2024/01/08 09:32:06;;;;;;;5.05;1.65;;;;;;;;;;4113246;29;20102;-82
2024/01/08 09:34:12;;;;;;;7.20;1.50;;;;;;;;;;4112539;28;20114;-83
2024/01/08 09:36:19;;;;;;;5.50;2.00;;;;;;;;;;4141384;28;20049;-83
2024/01/08 09:38:24;;;;;;;7.47;1.52;;;;;;;;;;4147644;28;20053;-83
2024/01/08 09:40:26;;;;;;;5.30;1.60;;;;;;;;;;4147077;28;20046;-83
2024/01/08 09:42:36;;;;;;;4.20;1.60;;;;;;;;;;4145780;28;20073;-83
2024/01/08 09:44:54;;;;;;;6.60;1.73;;;;;;;;;;4117176;28;20058;-83
2024/01/08 09:46:58;;;;;;;3.67;1.98;;;;;;;;;;4132819;28;20051;-83
2024/01/08 09:49:03;;;;;;;6.78;2.13;;;;;;;;;;4141765;28;20509;-83
2024/01/08 09:51:14;;;;;;;1.83;1.10;;;;;;;;;;4131753;28;20074;-83
2024/01/08 09:53:16;;;;;;;3.22;1.58;;;;;;;;;;4148384;28;20046;-83
2024/01/08 09:55:17;;;;;;;6.63;2.50;;;;;;;;;;4148071;28;20050;-83
2024/01/08 09:57:20;;;;;;;7.60;1.75;;;;;;;;;;4148754;28;20046;-83
2024/01/08 09:59:28;;;;;;;5.28;1.75;;;;;;;;;;4148331;28;20097;-82
2024/01/08 10:01:31;;;;;;;2.53;1.48;;;;;;;;;;4147400;28;20050;-83
2024/01/08 10:03:33;;;;;;;3.90;1.45;;;;;;;;;;4147626;28;20068;-84
2024/01/08 10:05:38;;;;;;;6.32;1.75;;;;;;;;;;4147576;28;20043;-82
2024/01/08 10:07:41;;;;;;;4.35;1.73;;;;;;;;;;4147676;28;20053;-83
2024/01/08 10:09:42;;;;;;;6.18;1.77;;;;;;;;;;4148214;28;20046;-81
2024/01/08 10:11:44;;;;;;;2.45;1.55;;;;;;;;;;4148646;28;20487;-81
2024/01/08 10:13:47;;;;;;;9.35;1.65;;;;;;;;;;4130912;28;20074;-81
2024/01/08 10:15:59;;;;;;;9.02;2.05;;;;;;;;;;4149828;28;20046;-82
2024/01/08 10:18:09;;;;;;;8.60;2.10;;;;;;;;;;4140840;28;20073;-83
2024/01/08 10:20:15;;;;;;;;;;;;;;;;;;4135982;28;20070;-81
2024/01/08 10:22:16;;;;;;;11.20;2.30;;;;;;;;;;4132136;28;19922;-81
2024/01/08 10:24:25;;;;;;;7.43;1.35;;;;;;;;;;4136507;28;20072;-81
2024/01/08 10:26:28;;;;;;;3.08;1.60;;;;;;;;;;4148828;28;20057;-81
2024/01/08 10:28:37;;;;;;;6.63;1.60;;;;;;;;;;4148792;28;20051;-81
2024/01/08 10:30:39;;;;;;;;;;;;;;;;;;4149324;28;20065;-82
2024/01/08 10:33:01;;;;;;;7.90;2.33;;;;;;;;;;4148272;28;19972;-81
2024/01/08 10:35:20;;;;;;;4.20;1.52;;;;;;;;;;4144573;28;20117;-80
2024/01/08 10:37:32;;;;;;;5.43;1.63;;;;;;;;;;4146027;28;20046;-81
2024/01/08 10:39:35;;;;;;;3.55;1.80;;;;;;;;;;4120287;28;20031;-81
2024/01/08 10:41:38;;;;;;;4.95;1.95;;;;;;;;;;4133065;28;20054;-81
2024/01/08 10:43:42;;;;;;;5.13;1.70;;;;;;;;;;4147761;28;20045;-80
2024/01/08 10:45:47;;;;;;;4.68;1.90;;;;;;;;;;4147367;28;20106;-81
2024/01/08 10:47:51;;;;;;;6.53;1.90;;;;;;;;;;4146181;28;20098;-81
2024/01/08 10:49:53;;;;;;;3.50;1.85;;;;;;;;;;4145696;28;20046;-83
2024/01/08 10:51:59;;;;;;;4.65;1.95;;;;;;;;;;4135422;28;20069;-81
2024/01/08 10:54:02;;;;;;;4.63;1.58;;;;;;;;;;4142937;28;20050;-81
2024/01/08 10:56:09;;;;;;;3.65;2.05;;;;;;;;;;4139338;28;20042;-82
2024/01/08 10:58:22;;;;;;;3.92;1.92;;;;;;;;;;4126744;28;20046;-81
2024/01/08 11:00:24;;;;;;;3.78;1.58;;;;;;;;;;4143371;28;20046;-81
2024/01/08 11:02:26;;;;;;;3.17;1.42;;;;;;;;;;4141776;28;20050;-80
2024/01/08 11:04:30;;;;;;;2.78;1.83;;;;;;;;;;4142211;28;20061;-81
2024/01/08 11:06:34;;;;;;;4.38;2.15;;;;;;;;;;4142507;28;20053;-81
2024/01/08 11:08:38;;;;;;;3.80;1.58;;;;;;;;;;4143487;28;20062;-81
2024/01/08 11:10:39;;;;;;;4.82;2.08;;;;;;;;;;4114133;28;20055;-81
2024/01/08 11:12:41;;;;;;;3.30;1.70;;;;;;;;;;4143639;28;20049;-81
2024/01/08 11:14:46;;;;;;;6.10;2.20;;;;;;;;;;4142837;28;20038;-80
2024/01/08 11:16:48;;;;;;;3.45;1.80;;;;;;;;;;4139863;28;20050;-81
2024/01/08 11:19:09;;;;;;;3.70;1.85;;;;;;;;;;4142107;28;20071;-80
2024/01/08 11:21:10;;;;;;;4.95;1.70;;;;;;;;;;4146141;28;20042;-81
2024/01/08 11:23:42;;;;;;;4.75;1.38;;;;;;;;;;4145673;28;20058;-81
2024/01/08 11:25:50;;;;;;;3.30;1.40;;;;;;;;;;4129586;28;20054;-82
2024/01/08 11:27:57;;;;;;;2.53;1.55;;;;;;;;;;4126712;28;23499;-80
2024/01/08 11:30:07;;;;;;;4.95;1.73;;;;;;;;;;4143335;28;20038;-81
2024/01/08 11:32:29;;;;;;;2.63;1.52;;;;;;;;;;4144524;28;20068;-81
2024/01/08 11:34:55;;;;;;;5.20;1.58;;;;;;;;;;4137874;28;20038;-82
2024/01/08 11:37:09;;;;;;;4.35;2.10;;;;;;;;;;4130643;28;20054;-80
2024/01/08 11:39:21;;;;;;;4.00;1.50;;;;;;;;;;4144310;28;20065;-80
2024/01/08 11:41:22;;;;;;;3.60;1.50;;;;;;;;;;4143777;28;20042;-81
2024/01/08 11:43:23;;;;;;;10.05;1.70;;;;;;;;;;4144763;28;20053;-81
2024/01/08 11:45:32;;;;;;;4.68;1.70;;;;;;;;;;4144325;28;20093;-80
2024/01/08 11:47:34;;;;;;;3.28;1.75;;;;;;;;;;4144530;28;20120;-81
2024/01/08 11:49:43;;;;;;;5.00;1.80;;;;;;;;;;4140370;28;20097;-81
2024/01/08 11:51:47;;;;;;;3.95;1.73;;;;;;;;;;4141343;28;20038;-82
2024/01/08 11:53:51;;;;;;;3.70;1.45;;;;;;;;;;4139080;28;20043;-82
2024/01/08 11:55:52;;;;;;;4.45;1.45;;;;;;;;;;4139163;28;20046;-81
2024/01/08 11:57:59;;;;;;;5.97;1.45;;;;;;;;;;4140462;28;20069;-81
2024/01/08 12:00:23;;;;;;;5.03;2.10;;;;;;;;;;4139390;28;20046;-82
2024/01/08 12:02:28;;;;;;;4.90;1.77;;;;;;;;;;4138415;28;20069;-81
2024/01/08 12:04:29;;;;;;;2.95;1.33;;;;;;;;;;4137540;28;20038;-81
2024/01/08 12:06:32;;;;;;;4.35;1.80;;;;;;;;;;4138064;28;20052;-82
2024/01/08 12:08:41;;;;;;;4.18;1.45;;;;;;;;;;4136449;28;20052;-81
2024/01/08 12:10:42;;;;;;;;;;;;;;;;;;4119855;28;20062;-81
2024/01/08 12:12:53;;;;;;;3.53;1.88;;;;;;;;;;4137019;28;20389;-81
2024/01/08 12:14:54;;;;;;;4.80;1.48;;;;;;;;;;4137024;28;20038;-81
2024/01/08 12:16:55;;;;;;;3.80;1.67;;;;;;;;;;4120353;28;20062;-81
2024/01/08 12:18:56;;;;;;;3.22;1.58;;;;;;;;;;4145285;28;20218;-81
2024/01/08 12:20:59;;;;;;;2.67;1.40;;;;;;;;;;4124994;28;20074;-81
2024/01/08 12:23:00;;;;;;;3.40;1.70;;;;;;;;;;4140877;28;20058;-81
2024/01/08 12:25:10;;;;;;;4.18;1.55;;;;;;;;;;4124684;28;20571;-81
2024/01/08 12:27:12;;;;;;;4.22;1.33;;;;;;;;;;4149299;28;20049;-84
2024/01/08 12:29:16;;;;;;;3.63;1.60;;;;;;;;;;4152715;28;20038;-83
2024/01/08 12:31:22;;;;;;;5.60;1.40;;;;;;;;;;4154589;28;20043;-82
2024/01/08 12:33:25;;;;;;;4.50;1.60;;;;;;;;;;4154220;28;20046;-82
2024/01/08 12:35:32;;;;;;;8.82;2.15;;;;;;;;;;4151358;28;20121;-81
2024/01/08 12:37:33;;;;;;;4.60;1.50;;;;;;;;;;4151744;28;20047;-81
2024/01/08 12:39:35;;;;;;;3.08;1.20;;;;;;;;;;4150115;28;20101;-81